createdAt,value
2019-02-10T00:00:11.221Z,11.60
2019-02-10T00:05:13.025Z,10.67
2019-02-10T00:10:14.996Z,8.30
2019-02-10T00:15:16.970Z,11.10
2019-02-10T00:20:18.981Z,8.93
2019-02-10T00:25:20.745Z,10.20
2019-02-10T00:30:22.745Z,11.40
2019-02-10T00:35:25.736Z,9.10
2019-02-10T00:40:28.205Z,12.40
2019-02-10T00:45:31.445Z,11.50
2019-02-10T00:50:33.662Z,9.27
2019-02-10T00:55:39.085Z,9.83
2019-02-10T01:00:44.718Z,9.53
2019-02-10T01:05:47.875Z,9.00
2019-02-10T01:10:49.680Z,8.20
2019-02-10T01:15:51.481Z,8.10
2019-02-10T01:20:53.183Z,12.50
2019-02-10T01:25:54.888Z,7.57
2019-02-10T01:30:56.818Z,8.97
2019-02-10T01:35:59.314Z,11.27
2019-02-10T01:41:01.321Z,8.77
2019-02-10T01:46:03.128Z,11.07
2019-02-10T01:51:04.878Z,9.87
2019-02-10T01:56:07.890Z,11.10
2019-02-10T02:01:10.074Z,11.60
2019-02-10T02:06:12.278Z,9.03
2019-02-10T02:11:14.243Z,12.13
2019-02-10T02:16:16.505Z,13.10
2019-02-10T02:21:19.847Z,10.73
2019-02-10T02:26:23.625Z,8.77
2019-02-10T02:31:25.392Z,15.37
2019-02-10T02:36:27.911Z,11.80
2019-02-10T02:41:30.960Z,9.13
2019-02-10T02:46:33.156Z,11.80
2019-02-10T02:51:34.960Z,11.60
2019-02-10T02:56:37.013Z,17.20
2019-02-10T03:01:40.825Z,7.90
2019-02-10T03:06:45.710Z,11.17
2019-02-10T03:11:49.450Z,9.93
2019-02-10T03:16:52.993Z,11.43
2019-02-10T03:21:55.143Z,9.40
2019-02-10T03:26:57.012Z,12.60
2019-02-10T03:31:58.819Z,10.50
2019-02-10T03:37:01.327Z,10.70
2019-02-10T03:42:03.039Z,9.73
2019-02-10T03:47:08.240Z,9.90
2019-02-10T03:52:11.859Z,11.47
2019-02-10T03:57:16.223Z,8.53
2019-02-10T04:02:17.977Z,10.97
2019-02-10T04:07:19.938Z,11.10
2019-02-10T04:12:22.139Z,10.00
2019-02-10T04:17:24.472Z,7.90
2019-02-10T04:22:26.255Z,11.93
2019-02-10T04:27:28.055Z,8.80
2019-02-10T04:32:29.855Z,10.03
2019-02-10T04:37:32.982Z,9.60
2019-02-10T04:42:34.815Z,6.93
2019-02-10T04:47:36.680Z,7.90
2019-02-10T04:52:39.984Z,8.80
2019-02-10T04:57:41.772Z,6.30
2019-02-10T05:02:43.830Z,7.80
2019-02-10T05:07:54.092Z,6.73
2019-02-10T05:12:49.683Z,10.60
2019-02-10T05:17:51.698Z,9.60
2019-02-10T05:22:53.441Z,8.37
2019-02-10T05:27:55.595Z,8.33
2019-02-10T05:32:57.702Z,9.00
2019-02-10T05:38:04.270Z,8.73
2019-02-10T05:43:04.176Z,5.80
2019-02-10T05:48:05.942Z,9.80
2019-02-10T05:53:07.684Z,6.80
2019-02-10T05:58:09.449Z,7.67
2019-02-10T06:03:11.280Z,6.17
2019-02-10T06:08:13.780Z,5.30
2019-02-10T06:13:15.714Z,7.43
2019-02-10T06:18:17.404Z,4.13
2019-02-10T06:23:19.206Z,5.00
2019-02-10T06:28:21.346Z,4.70
2019-02-10T06:33:23.122Z,4.87
2019-02-10T06:38:26.089Z,6.80
2019-02-10T06:43:27.754Z,5.90
2019-02-10T06:48:30.386Z,5.23
2019-02-10T06:53:32.178Z,2.90
2019-02-10T06:58:35.651Z,3.30
2019-02-10T07:03:45.783Z,6.00
2019-02-10T07:08:47.477Z,3.87
2019-02-10T07:13:52.274Z,2.87
2019-02-10T07:19:33.786Z,5.23
2019-02-10T07:24:42.216Z,4.00
2019-02-10T07:30:06.342Z,4.80
2019-02-10T07:35:34.680Z,3.40
2019-02-10T07:40:45.146Z,4.50
2019-02-10T07:46:03.083Z,6.43
2019-02-10T07:51:29.262Z,4.97
2019-02-10T07:56:46.731Z,4.80
2019-02-10T08:02:01.344Z,4.60
2019-02-10T08:07:06.620Z,6.57
2019-02-10T08:12:48.297Z,5.37
2019-02-10T08:17:56.736Z,5.20
2019-02-10T08:23:11.318Z,6.40
2019-02-10T08:28:19.895Z,4.93
2019-02-10T08:33:25.289Z,6.80
2019-02-10T08:38:38.220Z,6.60
2019-02-10T08:43:52.547Z,6.73
2019-02-10T08:49:01.558Z,6.33
2019-02-10T08:54:03.836Z,5.90
2019-02-10T08:59:07.197Z,2.23
2019-02-10T09:04:09.088Z,7.60
2019-02-10T09:09:10.884Z,8.60
2019-02-10T09:14:13.734Z,7.00
2019-02-10T09:19:15.486Z,5.20
2019-02-10T09:24:17.308Z,6.50
2019-02-10T09:29:19.054Z,5.70
2019-02-10T09:34:21.328Z,4.73
2019-02-10T09:39:23.077Z,6.00
2019-02-10T09:44:24.875Z,4.90
2019-02-10T09:49:26.731Z,5.97
2019-02-10T09:54:28.533Z,5.70
2019-02-10T09:59:30.333Z,6.00
2019-02-10T10:04:32.136Z,3.30
2019-02-10T10:09:33.934Z,5.90
2019-02-10T10:14:35.685Z,4.17
2019-02-10T10:19:37.844Z,3.97
2019-02-10T10:24:39.644Z,3.77
2019-02-10T10:29:41.441Z,3.50
2019-02-10T10:34:43.243Z,3.17
2019-02-10T10:39:45.007Z,4.00
2019-02-10T10:44:46.847Z,3.47
2019-02-10T10:49:48.827Z,2.90
2019-02-10T10:54:50.654Z,2.83
2019-02-10T10:59:52.512Z,3.10
2019-02-10T11:04:54.313Z,3.53
2019-02-10T11:09:56.054Z,3.17
2019-02-10T11:14:58.508Z,2.60
2019-02-10T11:20:00.724Z,3.80
2019-02-10T11:25:03.777Z,3.33
2019-02-10T11:30:14.177Z,2.93
2019-02-10T11:35:15.988Z,2.80
2019-02-10T11:40:17.753Z,2.90
2019-02-10T11:45:19.708Z,3.50
2019-02-10T11:50:22.900Z,2.70
2019-02-10T11:55:24.970Z,2.67
2019-02-10T12:00:26.844Z,2.80
2019-02-10T12:05:37.354Z,3.70
2019-02-10T12:10:43.505Z,3.77
2019-02-10T12:15:45.899Z,3.67
2019-02-10T12:20:47.793Z,4.57
2019-02-10T12:25:50.673Z,3.53
2019-02-10T12:30:52.947Z,4.20
2019-02-10T12:35:58.433Z,3.33
2019-02-10T12:40:59.297Z,3.70
2019-02-10T12:46:01.142Z,3.10
2019-02-10T12:51:02.908Z,3.40
2019-02-10T12:56:05.101Z,3.33
2019-02-10T13:01:07.629Z,3.07
2019-02-10T13:06:10.007Z,3.10
2019-02-10T13:11:11.740Z,3.87
2019-02-10T13:16:13.847Z,2.60
2019-02-10T13:21:15.660Z,3.47
2019-02-10T13:26:17.461Z,3.07
2019-02-10T13:31:19.284Z,3.57
2019-02-10T13:36:21.031Z,3.43
2019-02-10T13:41:23.527Z,2.90
2019-02-10T13:46:25.456Z,3.27
2019-02-10T13:51:27.267Z,2.60
2019-02-10T13:56:29.064Z,4.37
2019-02-10T14:01:30.863Z,3.97
2019-02-10T14:06:32.662Z,3.13
2019-02-10T14:11:34.552Z,5.23
2019-02-10T14:16:36.865Z,3.37
2019-02-10T14:21:42.260Z,3.03
2019-02-10T14:26:44.568Z,3.50
2019-02-10T14:31:46.572Z,3.30
2019-02-10T14:36:48.575Z,3.47
2019-02-10T14:41:50.984Z,3.23
2019-02-10T14:46:52.989Z,2.77
2019-02-10T14:51:54.938Z,2.67
2019-02-10T14:56:58.644Z,2.97
2019-02-10T15:02:00.476Z,3.20
2019-02-10T15:07:02.358Z,2.70
2019-02-10T15:12:04.667Z,2.17
2019-02-10T15:17:06.568Z,3.40
2019-02-10T15:22:08.466Z,2.10
2019-02-10T15:27:10.486Z,2.43
2019-02-10T15:32:16.859Z,2.17
2019-02-10T15:37:16.336Z,1.73
2019-02-10T15:42:18.115Z,1.80
2019-02-10T15:47:20.431Z,2.40
2019-02-10T15:52:22.402Z,2.37
2019-02-10T15:57:24.716Z,2.50
2019-02-10T16:02:28.098Z,2.03
2019-02-10T16:07:30.024Z,2.37
2019-02-10T16:12:31.972Z,1.17
2019-02-10T16:17:33.984Z,1.90
2019-02-10T16:22:36.714Z,1.70
2019-02-10T16:27:38.764Z,4.90
2019-02-10T16:32:40.738Z,3.23
2019-02-10T16:37:42.732Z,2.50
2019-02-10T16:42:47.521Z,2.60
2019-02-10T16:47:54.626Z,1.90
2019-02-10T16:52:56.627Z,1.60
2019-02-10T16:57:58.538Z,2.43
2019-02-10T17:03:00.536Z,1.30
2019-02-10T17:08:02.559Z,2.27
2019-02-10T17:13:04.848Z,2.27
2019-02-10T17:18:06.808Z,1.63
2019-02-10T17:23:09.069Z,1.63
2019-02-10T17:28:10.874Z,1.70
2019-02-10T17:33:12.888Z,1.43
2019-02-10T17:38:15.223Z,1.50
2019-02-10T17:43:17.303Z,1.73
2019-02-10T17:48:20.305Z,1.80
2019-02-10T17:53:22.336Z,1.63
2019-02-10T17:58:26.261Z,2.17
2019-02-10T18:03:28.289Z,2.73
2019-02-10T18:08:30.307Z,4.33
2019-02-10T18:13:32.510Z,4.63
2019-02-10T18:18:48.143Z,3.43
2019-02-10T18:24:04.094Z,4.30
2019-02-10T18:29:24.983Z,3.93
2019-02-10T18:34:32.175Z,4.03
2019-02-10T18:39:38.685Z,5.23
2019-02-10T18:44:52.855Z,6.10
2019-02-10T18:50:01.026Z,8.30
2019-02-10T18:55:16.518Z,8.93
2019-02-10T19:00:38.121Z,11.20
2019-02-10T19:05:54.128Z,11.77
2019-02-10T19:10:58.040Z,10.50
2019-02-10T19:16:02.330Z,8.80
2019-02-10T19:21:06.589Z,10.70
2019-02-10T19:26:27.137Z,12.00
2019-02-10T19:31:43.172Z,15.80
2019-02-10T19:36:47.426Z,22.57
2019-02-10T19:42:03.258Z,29.93
2019-02-10T19:47:07.322Z,23.43
2019-02-10T19:52:12.899Z,40.00
2019-02-10T19:57:17.852Z,37.27
2019-02-10T20:02:22.091Z,42.63
2019-02-10T20:07:26.034Z,45.43
2019-02-10T20:12:30.253Z,43.87
2019-02-10T20:17:50.680Z,41.30
2019-02-10T20:23:11.494Z,39.07
2019-02-10T20:28:20.822Z,45.80
2019-02-10T20:33:41.206Z,35.73
2019-02-10T20:38:44.768Z,31.83
2019-02-10T20:43:48.449Z,41.60
2019-02-10T20:49:05.040Z,37.97
2019-02-10T20:54:08.744Z,26.30
2019-02-10T20:59:12.474Z,20.20
2019-02-10T21:04:18.838Z,21.90
2019-02-10T21:09:25.129Z,19.00
2019-02-10T21:14:47.106Z,20.17
2019-02-10T21:20:08.857Z,18.80
2019-02-10T21:25:21.706Z,19.60
2019-02-10T21:30:41.795Z,19.90
2019-02-10T21:35:51.515Z,17.37
2019-02-10T21:41:11.748Z,18.03
2019-02-10T21:46:15.280Z,15.57
2019-02-10T21:51:16.971Z,17.77
2019-02-10T21:56:18.854Z,16.63
2019-02-10T22:01:20.521Z,16.73
2019-02-10T22:06:22.214Z,16.03
2019-02-10T22:11:24.405Z,12.97
2019-02-10T22:16:26.071Z,14.40
2019-02-10T22:21:28.118Z,13.07
2019-02-10T22:26:29.781Z,10.00
2019-02-10T22:31:31.501Z,9.87
2019-02-10T22:36:33.551Z,9.67
2019-02-10T22:41:36.583Z,8.43
2019-02-10T22:46:38.839Z,6.80
2019-02-10T22:51:42.736Z,4.50
2019-02-10T22:56:44.585Z,6.77
2019-02-10T23:01:46.330Z,6.20
2019-02-10T23:06:48.094Z,6.57
2019-02-10T23:11:49.936Z,4.80
2019-02-10T23:16:52.396Z,5.50
2019-02-10T23:21:54.474Z,4.80
2019-02-10T23:26:56.209Z,5.10
2019-02-10T23:31:58.619Z,4.03
2019-02-10T23:37:00.328Z,3.50
2019-02-10T23:42:02.012Z,3.03
2019-02-10T23:47:03.712Z,3.80
2019-02-10T23:52:05.514Z,3.63
2019-02-10T23:57:07.217Z,2.87
